createdAt,value
2023-01-09T00:00:23.211Z,88.70
2023-01-09T00:02:53.869Z,93.38
2023-01-09T00:05:23.452Z,106.95
2023-01-09T00:07:52.312Z,135.73
2023-01-09T00:10:21.372Z,167.70
2023-01-09T00:12:50.209Z,231.90
2023-01-09T00:15:19.189Z,115.93
2023-01-09T00:17:49.933Z,104.82
2023-01-09T00:20:20.325Z,93.20
2023-01-09T00:22:49.114Z,97.97
2023-01-09T00:25:18.121Z,103.55
2023-01-09T00:27:47.046Z,104.95
2023-01-09T00:30:16.667Z,93.50
2023-01-09T00:32:45.594Z,80.15
2023-01-09T00:35:18.953Z,90.88
2023-01-09T00:37:49.183Z,90.45
2023-01-09T00:40:19.189Z,82.22
2023-01-09T00:42:51.094Z,84.15
2023-01-09T00:45:28.699Z,83.28
2023-01-09T00:48:05.038Z,81.70
2023-01-09T00:50:35.172Z,81.53
2023-01-09T00:53:12.508Z,108.75
2023-01-09T00:55:41.808Z,93.45
2023-01-09T00:58:11.720Z,76.28
2023-01-09T01:00:40.562Z,89.45
2023-01-09T01:03:09.778Z,84.40
2023-01-09T01:05:56.189Z,75.07
2023-01-09T01:08:26.419Z,64.20
2023-01-09T01:10:55.301Z,89.97
2023-01-09T01:13:24.172Z,90.30
2023-01-09T01:15:52.979Z,83.47
2023-01-09T01:18:21.935Z,78.30
2023-01-09T01:20:50.797Z,124.07
2023-01-09T01:23:19.664Z,88.10
2023-01-09T01:25:50.277Z,87.18
2023-01-09T01:28:19.356Z,77.20
2023-01-09T01:30:48.222Z,80.75
2023-01-09T01:33:17.063Z,56.22
2023-01-09T01:35:45.911Z,73.00
2023-01-09T01:38:14.754Z,68.70
2023-01-09T01:40:43.971Z,74.07
2023-01-09T01:43:14.808Z,77.15
2023-01-09T01:45:43.644Z,70.55
2023-01-09T01:48:16.894Z,90.88
2023-01-09T01:50:49.379Z,74.35
2023-01-09T01:53:21.736Z,68.63
2023-01-09T01:56:02.195Z,75.72
2023-01-09T01:58:34.418Z,74.95
2023-01-09T02:01:04.625Z,86.57
2023-01-09T02:03:34.525Z,65.90
2023-01-09T02:06:05.519Z,64.40
2023-01-09T02:08:34.564Z,56.55
2023-01-09T02:11:05.997Z,56.75
2023-01-09T02:13:39.087Z,70.35
2023-01-09T02:16:21.404Z,78.00
2023-01-09T02:18:52.426Z,81.50
2023-01-09T02:21:31.128Z,67.45
2023-01-09T02:24:29.994Z,65.68
2023-01-09T02:27:12.281Z,66.45
2023-01-09T02:30:06.126Z,82.43
2023-01-09T02:32:45.742Z,76.32
2023-01-09T02:35:24.724Z,67.78
2023-01-09T02:38:03.853Z,70.32
2023-01-09T02:40:40.602Z,67.50
2023-01-09T02:43:10.934Z,63.47
2023-01-09T02:45:41.205Z,64.95
2023-01-09T02:48:12.033Z,64.18
2023-01-09T02:50:48.165Z,74.95
2023-01-09T02:53:55.530Z,85.05
2023-01-09T02:56:50.926Z,91.43
2023-01-09T02:59:27.085Z,81.55
2023-01-09T03:02:09.227Z,92.25
2023-01-09T03:04:51.888Z,74.80
2023-01-09T03:07:27.671Z,76.00
2023-01-09T03:10:04.372Z,85.30
2023-01-09T03:12:34.438Z,249.88
2023-01-09T03:15:07.935Z,154.25
2023-01-09T03:17:42.178Z,85.18
2023-01-09T03:20:14.711Z,99.03
2023-01-09T03:22:53.936Z,75.95
2023-01-09T03:25:23.386Z,75.35
2023-01-09T03:27:57.475Z,87.80
2023-01-09T03:30:27.582Z,95.35
2023-01-09T03:32:58.718Z,79.57
2023-01-09T03:35:28.020Z,90.65
2023-01-09T03:37:56.968Z,75.90
2023-01-09T03:40:25.768Z,75.10
2023-01-09T03:42:54.593Z,73.80
2023-01-09T03:45:23.418Z,68.25
2023-01-09T03:47:53.100Z,79.70
2023-01-09T03:50:23.362Z,95.47
2023-01-09T03:52:52.361Z,107.07
2023-01-09T03:55:21.156Z,94.13
2023-01-09T03:57:50.236Z,87.10
2023-01-09T04:00:19.936Z,100.85
2023-01-09T04:02:49.210Z,99.35
2023-01-09T04:05:18.273Z,90.70
2023-01-09T04:07:48.518Z,77.75
2023-01-09T04:10:18.105Z,83.95
2023-01-09T04:12:46.927Z,75.63
2023-01-09T04:15:15.941Z,75.15
2023-01-09T04:17:44.805Z,75.57
2023-01-09T04:20:13.839Z,85.10
2023-01-09T04:22:43.126Z,73.20
2023-01-09T04:25:14.079Z,78.93
2023-01-09T04:27:42.927Z,88.00
2023-01-09T04:30:12.876Z,71.78
2023-01-09T04:32:41.812Z,78.82
2023-01-09T04:35:11.344Z,64.90
2023-01-09T04:37:40.533Z,66.07
2023-01-09T04:40:10.805Z,64.82
2023-01-09T04:42:42.094Z,63.20
2023-01-09T04:45:15.435Z,62.85
2023-01-09T04:47:44.702Z,61.72
2023-01-09T04:50:14.016Z,78.72
2023-01-09T04:52:42.859Z,76.65
2023-01-09T04:55:11.695Z,58.08
2023-01-09T04:57:41.909Z,58.92
2023-01-09T05:00:12.425Z,68.97
2023-01-09T05:02:42.325Z,61.85
2023-01-09T05:05:12.215Z,57.78
2023-01-09T05:07:41.173Z,60.22
2023-01-09T05:10:12.240Z,64.50
2023-01-09T05:12:42.496Z,66.90
2023-01-09T05:15:12.095Z,59.05
2023-01-09T05:17:41.017Z,82.47
2023-01-09T05:20:10.861Z,74.57
2023-01-09T05:22:39.691Z,65.88
2023-01-09T05:25:09.285Z,72.75
2023-01-09T05:27:38.133Z,63.17
2023-01-09T05:30:10.118Z,69.25
2023-01-09T05:32:38.989Z,63.33
2023-01-09T05:35:08.794Z,62.67
2023-01-09T05:37:37.920Z,61.50
2023-01-09T05:40:07.966Z,67.45
2023-01-09T05:42:36.889Z,63.20
2023-01-09T05:45:06.494Z,63.35
2023-01-09T05:47:36.798Z,68.10
2023-01-09T05:50:06.469Z,80.18
2023-01-09T05:52:35.614Z,108.82
2023-01-09T05:55:04.827Z,88.32
2023-01-09T05:57:33.657Z,104.05
2023-01-09T06:00:03.844Z,90.82
2023-01-09T06:02:37.295Z,79.70
2023-01-09T06:05:07.068Z,102.28
2023-01-09T06:07:39.365Z,94.35
2023-01-09T06:10:09.791Z,108.68
2023-01-09T06:12:38.876Z,100.50
2023-01-09T06:15:09.286Z,114.93
2023-01-09T06:17:39.585Z,81.50
2023-01-09T06:20:09.774Z,111.82
2023-01-09T06:22:38.740Z,122.47
2023-01-09T06:25:08.584Z,101.22
2023-01-09T06:27:37.655Z,86.72
2023-01-09T06:30:10.659Z,103.18
2023-01-09T06:32:40.857Z,112.90
2023-01-09T06:35:10.598Z,124.47
2023-01-09T06:37:40.136Z,118.57
2023-01-09T06:40:10.824Z,100.35
2023-01-09T06:42:39.754Z,171.23
2023-01-09T06:45:09.215Z,140.02
2023-01-09T06:47:38.065Z,128.98
2023-01-09T06:50:09.399Z,137.15
2023-01-09T06:52:38.419Z,81.40
2023-01-09T06:55:08.670Z,164.13
2023-01-09T06:57:37.538Z,130.25
2023-01-09T07:00:07.294Z,102.43
2023-01-09T07:02:36.232Z,168.57
2023-01-09T07:05:08.071Z,182.73
2023-01-09T07:07:38.397Z,166.63
2023-01-09T07:10:08.176Z,151.82
2023-01-09T07:12:37.089Z,167.73
2023-01-09T07:15:06.900Z,157.52
2023-01-09T07:17:35.819Z,153.20
2023-01-09T07:20:05.607Z,166.00
2023-01-09T07:22:34.546Z,145.65
2023-01-09T07:25:06.521Z,140.77
2023-01-09T07:27:35.426Z,147.35
2023-01-09T07:30:05.767Z,160.77
2023-01-09T07:32:35.032Z,149.80
2023-01-09T07:35:04.563Z,170.25
2023-01-09T07:37:34.340Z,165.90
2023-01-09T07:40:06.137Z,200.63
2023-01-09T07:42:35.014Z,164.20
2023-01-09T07:45:04.228Z,144.35
2023-01-09T07:47:33.161Z,164.73
2023-01-09T07:50:02.138Z,164.90
2023-01-09T07:52:30.957Z,151.95
2023-01-09T07:54:59.735Z,139.18
2023-01-09T07:57:30.814Z,134.40
2023-01-09T08:00:01.166Z,107.25
2023-01-09T08:02:40.301Z,94.72
2023-01-09T08:05:14.792Z,101.32
2023-01-09T08:07:44.218Z,89.07
2023-01-09T08:10:13.772Z,83.82
2023-01-09T08:12:45.525Z,65.55
2023-01-09T08:15:15.308Z,93.63
2023-01-09T08:17:46.038Z,90.18
2023-01-09T08:20:17.341Z,84.40
2023-01-09T08:22:50.743Z,67.55
2023-01-09T08:25:20.009Z,69.80
2023-01-09T08:27:50.348Z,72.55
2023-01-09T08:30:19.864Z,78.65
2023-01-09T08:32:52.538Z,61.83
2023-01-09T08:35:21.777Z,72.20
2023-01-09T08:37:50.771Z,61.08
2023-01-09T08:40:20.168Z,66.28
2023-01-09T08:43:08.194Z,66.00
2023-01-09T08:45:54.681Z,65.40
2023-01-09T08:48:23.531Z,62.17
2023-01-09T08:50:54.171Z,55.08
2023-01-09T08:53:23.114Z,43.60
2023-01-09T08:55:51.927Z,53.67
2023-01-09T08:58:22.226Z,41.42
2023-01-09T09:00:51.094Z,48.78
2023-01-09T09:03:19.935Z,43.05
2023-01-09T09:05:48.961Z,47.65
2023-01-09T09:08:17.887Z,54.83
2023-01-09T09:10:46.794Z,58.13
2023-01-09T09:13:15.664Z,56.30
2023-01-09T09:15:45.957Z,63.13
2023-01-09T09:18:15.137Z,55.40
2023-01-09T09:20:44.320Z,56.13
2023-01-09T09:23:13.202Z,35.35
2023-01-09T09:25:42.032Z,32.63
2023-01-09T09:28:10.973Z,34.92
2023-01-09T09:30:40.383Z,29.38
2023-01-09T09:33:10.660Z,45.72
2023-01-09T09:35:39.554Z,49.25
2023-01-09T09:38:08.440Z,24.63
2023-01-09T09:41:07.283Z,31.92
2023-01-09T09:44:25.319Z,30.55
2023-01-09T09:47:02.551Z,30.55
2023-01-09T09:49:43.892Z,29.55
2023-01-09T09:52:27.012Z,30.00
2023-01-09T09:54:59.666Z,31.00
2023-01-09T09:57:35.155Z,30.88
2023-01-09T10:00:06.131Z,44.90
2023-01-09T10:02:50.505Z,30.98
2023-01-09T10:05:28.327Z,32.55
2023-01-09T10:08:14.901Z,31.08
2023-01-09T10:10:52.430Z,43.33
2023-01-09T10:13:43.693Z,45.95
2023-01-09T10:16:30.312Z,39.42
2023-01-09T10:19:11.801Z,30.40
2023-01-09T10:21:51.400Z,32.72
2023-01-09T10:24:40.486Z,30.55
2023-01-09T10:27:20.899Z,28.20
2023-01-09T10:30:11.111Z,35.90
2023-01-09T10:33:02.151Z,39.60
2023-01-09T10:35:47.935Z,36.03
2023-01-09T10:38:24.661Z,35.05
2023-01-09T10:41:01.432Z,49.33
2023-01-09T10:43:35.881Z,36.65
2023-01-09T10:46:08.850Z,50.80
2023-01-09T10:48:39.735Z,41.47
2023-01-09T10:51:19.345Z,35.85
2023-01-09T10:53:53.189Z,34.97
2023-01-09T10:56:24.827Z,33.40
2023-01-09T10:58:55.072Z,43.67
2023-01-09T11:01:29.194Z,29.33
2023-01-09T11:03:59.228Z,35.05
2023-01-09T11:06:33.704Z,30.45
2023-01-09T11:09:06.390Z,32.95
2023-01-09T11:11:37.047Z,37.58
2023-01-09T11:14:09.022Z,30.35
2023-01-09T11:16:37.838Z,31.83
2023-01-09T11:19:06.627Z,28.85
2023-01-09T11:21:38.261Z,25.90
2023-01-09T11:24:31.076Z,19.98
2023-01-09T11:27:25.710Z,30.17
2023-01-09T11:30:28.048Z,32.15
2023-01-09T11:32:58.988Z,43.13
2023-01-09T11:35:33.769Z,35.13
2023-01-09T11:38:13.674Z,31.52
2023-01-09T11:40:50.576Z,31.73
2023-01-09T11:43:25.672Z,36.50
2023-01-09T11:48:34.306Z,21.02
2023-01-09T11:51:05.971Z,26.67
2023-01-09T11:53:53.660Z,24.40
2023-01-09T11:56:23.997Z,25.02
2023-01-09T11:58:52.864Z,19.80
2023-01-09T12:02:00.696Z,19.58
2023-01-09T12:04:35.203Z,19.33
2023-01-09T12:07:23.136Z,27.75
2023-01-09T12:10:04.520Z,26.17
2023-01-09T12:12:49.660Z,23.65
2023-01-09T12:15:27.780Z,24.88
2023-01-09T12:18:23.985Z,20.42
2023-01-09T12:21:30.314Z,29.13
2023-01-09T12:24:18.621Z,19.15
2023-01-09T12:26:54.594Z,21.70
2023-01-09T12:29:48.422Z,22.58
2023-01-09T12:32:36.603Z,20.73
2023-01-09T12:35:17.046Z,19.65
2023-01-09T12:38:16.786Z,17.77
2023-01-09T12:41:13.008Z,19.00
2023-01-09T12:43:51.999Z,19.30
2023-01-09T12:46:24.565Z,25.98
2023-01-09T12:49:24.390Z,21.73
2023-01-09T12:52:02.418Z,23.75
2023-01-09T12:54:38.243Z,20.77
2023-01-09T12:57:15.342Z,24.20
2023-01-09T12:59:48.486Z,20.60
2023-01-09T13:02:25.306Z,16.67
2023-01-09T13:04:57.976Z,27.38
2023-01-09T13:07:30.874Z,23.88
2023-01-09T13:10:04.084Z,19.02
2023-01-09T13:12:36.904Z,18.00
2023-01-09T13:15:08.741Z,19.85
2023-01-09T13:17:44.039Z,42.33
2023-01-09T13:20:21.042Z,23.58
2023-01-09T13:22:52.428Z,19.52
2023-01-09T13:25:39.518Z,20.40
2023-01-09T13:28:15.321Z,18.95
2023-01-09T13:31:09.942Z,24.90
2023-01-09T13:33:43.109Z,16.33
2023-01-09T13:36:25.581Z,15.93
2023-01-09T13:38:56.160Z,16.98
2023-01-09T13:41:45.776Z,17.23
2023-01-09T13:44:24.956Z,16.58
2023-01-09T13:46:56.807Z,15.02
2023-01-09T13:50:06.644Z,15.88
2023-01-09T13:52:37.895Z,23.23
2023-01-09T13:55:29.931Z,17.13
2023-01-09T13:58:24.887Z,15.00
2023-01-09T14:01:03.347Z,17.63
2023-01-09T14:03:35.687Z,18.10
2023-01-09T14:06:13.196Z,18.50
2023-01-09T14:08:43.343Z,16.90
2023-01-09T14:11:23.211Z,19.83
2023-01-09T14:14:04.020Z,21.58
2023-01-09T14:16:33.231Z,23.77
2023-01-09T14:19:18.053Z,17.50
2023-01-09T14:21:50.939Z,22.60
2023-01-09T14:24:24.495Z,18.73
2023-01-09T14:26:57.267Z,27.50
2023-01-09T14:29:47.531Z,24.90
2023-01-09T14:32:38.997Z,20.15
2023-01-09T14:35:27.594Z,19.60
2023-01-09T14:38:24.224Z,26.17
2023-01-09T14:40:57.118Z,33.42
2023-01-09T14:43:33.883Z,34.38
2023-01-09T14:46:10.623Z,40.30
2023-01-09T14:48:45.451Z,28.02
2023-01-09T14:51:18.508Z,31.13
2023-01-09T14:53:53.039Z,49.78
2023-01-09T14:56:28.716Z,43.60
2023-01-09T14:59:13.502Z,40.95
2023-01-09T15:01:46.249Z,42.00
2023-01-09T15:04:31.777Z,27.70
2023-01-09T15:07:00.721Z,34.00
2023-01-09T15:09:39.134Z,33.13
2023-01-09T15:12:11.328Z,28.00
2023-01-09T15:14:43.323Z,30.75
2023-01-09T15:17:21.068Z,24.67
2023-01-09T15:19:50.286Z,26.08
2023-01-09T15:22:24.719Z,26.17
2023-01-09T15:24:54.947Z,29.00
2023-01-09T15:27:24.218Z,26.75
2023-01-09T15:29:53.959Z,27.95
2023-01-09T15:32:26.404Z,26.52
2023-01-09T15:34:56.276Z,34.78
2023-01-09T15:37:29.711Z,28.95
2023-01-09T15:40:02.653Z,27.80
2023-01-09T15:42:52.445Z,32.70
2023-01-09T15:45:25.774Z,26.38
2023-01-09T15:47:55.808Z,75.75
2023-01-09T15:50:28.943Z,84.07
2023-01-09T15:52:58.372Z,71.80
2023-01-09T15:55:35.739Z,98.82
2023-01-09T15:58:06.169Z,65.53
2023-01-09T16:00:39.521Z,66.90
2023-01-09T16:03:20.468Z,75.00
2023-01-09T16:05:53.151Z,78.90
2023-01-09T16:08:26.364Z,95.35
2023-01-09T16:10:59.552Z,125.72
2023-01-09T16:13:31.204Z,88.72
2023-01-09T16:16:03.265Z,94.60
2023-01-09T16:18:34.930Z,85.90
2023-01-09T16:21:22.882Z,94.35
2023-01-09T16:23:53.809Z,95.63
2023-01-09T16:26:26.226Z,96.90
2023-01-09T16:28:55.813Z,83.20
2023-01-09T16:31:27.004Z,100.07
2023-01-09T16:33:59.163Z,71.20
2023-01-09T16:36:29.250Z,75.93
2023-01-09T16:39:00.844Z,92.10
2023-01-09T16:41:49.186Z,101.40
2023-01-09T16:44:19.412Z,112.25
2023-01-09T16:46:48.433Z,109.63
2023-01-09T16:49:23.395Z,114.82
2023-01-09T16:51:53.154Z,89.53
2023-01-09T16:54:22.750Z,90.50
2023-01-09T16:56:55.672Z,87.25
2023-01-09T16:59:28.177Z,91.18
2023-01-09T17:01:57.072Z,85.78
2023-01-09T17:04:26.092Z,82.50
2023-01-09T17:06:55.169Z,100.90
2023-01-09T17:09:27.388Z,96.93
2023-01-09T17:11:57.808Z,114.85
2023-01-09T17:14:28.778Z,90.80
2023-01-09T17:16:57.850Z,99.35
2023-01-09T17:19:26.744Z,96.95
2023-01-09T17:21:55.598Z,107.28
2023-01-09T17:24:42.208Z,97.88
2023-01-09T17:27:30.092Z,83.32
2023-01-09T17:29:59.426Z,79.82
2023-01-09T17:32:31.439Z,66.47
2023-01-09T17:35:00.325Z,67.10
2023-01-09T17:37:30.506Z,66.68
2023-01-09T17:40:03.716Z,73.20
2023-01-09T17:42:33.966Z,72.07
2023-01-09T17:45:03.235Z,64.38
2023-01-09T17:47:33.924Z,69.07
2023-01-09T17:50:03.134Z,66.55
2023-01-09T17:52:32.238Z,66.97
2023-01-09T17:55:05.329Z,82.40
2023-01-09T17:57:35.635Z,80.65
2023-01-09T18:00:06.450Z,62.78
2023-01-09T18:02:35.191Z,69.88
2023-01-09T18:05:04.710Z,78.90
2023-01-09T18:07:33.479Z,39.38
2023-01-09T18:10:02.365Z,46.17
2023-01-09T18:12:31.245Z,52.80
2023-01-09T18:15:02.584Z,65.93
2023-01-09T18:17:31.465Z,38.88
2023-01-09T18:20:00.367Z,57.78
2023-01-09T18:22:29.650Z,51.97
2023-01-09T18:24:58.439Z,51.17
2023-01-09T18:27:27.337Z,50.55
2023-01-09T18:29:56.925Z,49.15
2023-01-09T18:32:27.392Z,35.20
2023-01-09T18:34:56.291Z,52.20
2023-01-09T18:37:25.120Z,49.80
2023-01-09T18:39:53.995Z,65.70
2023-01-09T18:42:22.882Z,63.05
2023-01-09T18:44:51.735Z,75.22
2023-01-09T18:47:20.565Z,91.82
2023-01-09T18:49:50.827Z,111.28
2023-01-09T18:52:19.718Z,89.72
2023-01-09T18:54:48.524Z,83.30
2023-01-09T18:57:17.465Z,75.25
2023-01-09T18:59:46.366Z,84.05
2023-01-09T19:02:20.653Z,48.75
2023-01-09T19:04:51.022Z,66.65
2023-01-09T19:07:20.209Z,42.83
2023-01-09T19:09:49.430Z,27.98
2023-01-09T19:12:18.281Z,25.48
2023-01-09T19:14:47.197Z,22.85
2023-01-09T19:17:16.001Z,26.65
2023-01-09T19:19:45.121Z,26.98
2023-01-09T19:22:15.453Z,30.25
2023-01-09T19:24:44.289Z,43.17
2023-01-09T19:27:13.137Z,26.77
2023-01-09T19:29:41.958Z,26.58
2023-01-09T19:32:13.909Z,27.52
2023-01-09T19:34:42.725Z,32.47
2023-01-09T19:37:11.580Z,21.48
2023-01-09T19:39:42.238Z,26.50
2023-01-09T19:42:11.197Z,28.05
2023-01-09T19:44:40.030Z,31.88
2023-01-09T19:47:09.316Z,22.67
2023-01-09T19:49:38.523Z,32.75
2023-01-09T19:52:07.396Z,25.73
2023-01-09T19:54:36.598Z,28.38
2023-01-09T19:57:07.023Z,24.17
2023-01-09T19:59:36.179Z,27.90
2023-01-09T20:02:05.200Z,23.08
2023-01-09T20:04:34.132Z,21.88
2023-01-09T20:07:05.059Z,21.52
2023-01-09T20:09:34.171Z,23.40
2023-01-09T20:12:05.435Z,18.63
2023-01-09T20:14:37.861Z,37.67
2023-01-09T20:17:06.732Z,31.30
2023-01-09T20:19:35.587Z,28.33
2023-01-09T20:22:04.440Z,40.22
2023-01-09T20:24:33.310Z,49.65
2023-01-09T20:27:02.167Z,35.00
2023-01-09T20:29:31.033Z,21.95
2023-01-09T20:32:02.895Z,24.70
2023-01-09T20:34:31.732Z,23.85
2023-01-09T20:37:00.598Z,21.35
2023-01-09T20:39:29.545Z,27.40
2023-01-09T20:41:58.415Z,22.73
2023-01-09T20:44:27.224Z,18.10
2023-01-09T20:46:56.098Z,26.23
2023-01-09T20:49:26.347Z,20.52
2023-01-09T20:51:55.188Z,22.63
2023-01-09T20:54:25.114Z,26.65
2023-01-09T20:56:54.077Z,25.73
2023-01-09T20:59:23.138Z,27.48
2023-01-09T21:01:52.405Z,26.65
2023-01-09T21:04:21.305Z,31.88
2023-01-09T21:06:51.551Z,43.05
2023-01-09T21:09:20.829Z,52.45
2023-01-09T21:11:49.635Z,40.80
2023-01-09T21:14:18.598Z,41.10
2023-01-09T21:16:54.631Z,47.83
2023-01-09T21:19:24.355Z,45.35
2023-01-09T21:21:54.639Z,36.83
2023-01-09T21:24:23.477Z,65.20
2023-01-09T21:26:52.311Z,120.28
2023-01-09T21:29:21.098Z,113.70
2023-01-09T21:31:49.974Z,112.63
2023-01-09T21:34:20.743Z,90.70
2023-01-09T21:36:50.283Z,67.60
2023-01-09T21:39:21.912Z,62.45
2023-01-09T21:42:07.964Z,57.58
2023-01-09T21:44:53.762Z,138.65
2023-01-09T21:47:22.952Z,204.13
2023-01-09T21:49:51.952Z,224.13
2023-01-09T21:52:21.032Z,205.38
2023-01-09T21:54:51.255Z,174.52
2023-01-09T21:57:20.218Z,144.15
2023-01-09T21:59:49.086Z,128.98
2023-01-09T22:02:17.957Z,106.65
2023-01-09T22:04:49.088Z,107.00
2023-01-09T22:07:18.315Z,71.30
2023-01-09T22:09:47.391Z,54.17
2023-01-09T22:12:17.639Z,57.40
2023-01-09T22:14:46.540Z,45.10
2023-01-09T22:17:15.355Z,54.17
2023-01-09T22:19:44.177Z,56.00
2023-01-09T22:22:13.003Z,54.88
2023-01-09T22:24:41.837Z,54.08
2023-01-09T22:27:10.668Z,57.03
2023-01-09T22:29:40.854Z,59.53
2023-01-09T22:32:09.684Z,65.30
2023-01-09T22:34:38.667Z,65.18
2023-01-09T22:37:07.517Z,74.72
2023-01-09T22:39:36.422Z,57.40
2023-01-09T22:42:05.643Z,49.05
2023-01-09T22:44:34.505Z,60.83
2023-01-09T22:47:05.934Z,65.20
2023-01-09T22:49:51.844Z,80.90
2023-01-09T22:52:21.964Z,61.25
2023-01-09T22:54:50.943Z,53.33
2023-01-09T22:57:19.737Z,68.03
2023-01-09T22:59:48.557Z,66.55
2023-01-09T23:02:19.034Z,66.07
2023-01-09T23:04:48.031Z,59.15
2023-01-09T23:07:17.171Z,57.35
2023-01-09T23:09:46.158Z,59.10
2023-01-09T23:12:15.897Z,56.35
2023-01-09T23:14:46.846Z,58.05
2023-01-09T23:17:15.702Z,65.30
2023-01-09T23:19:45.983Z,44.22
2023-01-09T23:22:14.831Z,42.75
2023-01-09T23:24:43.642Z,51.60
2023-01-09T23:27:12.713Z,42.38
2023-01-09T23:29:41.555Z,40.30
2023-01-09T23:32:12.130Z,48.95
2023-01-09T23:34:41.693Z,49.70
2023-01-09T23:37:11.989Z,44.88
2023-01-09T23:39:40.887Z,44.45
2023-01-09T23:42:29.051Z,41.97
2023-01-09T23:44:57.852Z,37.50
2023-01-09T23:47:26.733Z,32.97
2023-01-09T23:49:55.606Z,34.80
2023-01-09T23:52:25.926Z,33.88
2023-01-09T23:54:56.639Z,42.70
2023-01-09T23:57:26.364Z,31.40
2023-01-09T23:59:55.145Z,44.53
